createdAt,value
2022-09-06T00:00:32.083Z,92.59
2022-09-06T00:01:18.708Z,92.81
2022-09-06T00:02:05.174Z,93.21
2022-09-06T00:02:52.706Z,92.64
2022-09-06T00:03:39.833Z,93.24
2022-09-06T00:04:26.482Z,92.75
2022-09-06T00:05:14.169Z,92.21
2022-09-06T00:06:07.406Z,90.70
2022-09-06T00:06:54.159Z,90.87
2022-09-06T00:07:42.072Z,90.19
2022-09-06T00:08:28.497Z,91.28
2022-09-06T00:09:14.978Z,92.47
2022-09-06T00:10:01.746Z,91.69
2022-09-06T00:11:01.102Z,90.52
2022-09-06T00:11:47.949Z,90.77
2022-09-06T00:12:34.875Z,91.12
2022-09-06T00:13:21.337Z,91.74
2022-09-06T00:14:07.862Z,92.70
2022-09-06T00:14:55.070Z,92.74
2022-09-06T00:15:41.766Z,92.94
2022-09-06T00:16:30.610Z,93.31
2022-09-06T00:17:19.079Z,91.25
2022-09-06T00:18:07.326Z,91.95
2022-09-06T00:18:56.412Z,91.56
2022-09-06T00:19:42.983Z,90.84
2022-09-06T00:20:30.997Z,90.20
2022-09-06T00:21:21.520Z,89.98
2022-09-06T00:22:08.188Z,89.80
2022-09-06T00:23:04.281Z,90.08
2022-09-06T00:23:51.351Z,91.29
2022-09-06T00:24:38.051Z,89.53
2022-09-06T00:25:25.455Z,87.23
2022-09-06T00:26:11.971Z,88.42
2022-09-06T00:26:58.452Z,84.78
2022-09-06T00:27:45.021Z,84.19
2022-09-06T00:28:31.873Z,78.55
2022-09-06T00:29:18.558Z,76.24
2022-09-06T00:30:05.617Z,74.99
2022-09-06T00:30:52.210Z,74.63
2022-09-06T00:31:38.685Z,74.98
2022-09-06T00:32:25.364Z,75.17
2022-09-06T00:33:12.230Z,77.59
2022-09-06T00:33:58.917Z,78.98
2022-09-06T00:34:45.408Z,81.72
2022-09-06T00:35:32.597Z,84.34
2022-09-06T00:36:20.929Z,83.21
2022-09-06T00:37:07.477Z,84.17
2022-09-06T00:37:59.251Z,86.19
2022-09-06T00:38:45.837Z,85.66
2022-09-06T00:39:32.648Z,86.43
2022-09-06T00:40:19.181Z,87.81
2022-09-06T00:41:07.865Z,90.25
2022-09-06T00:41:54.370Z,91.72
2022-09-06T00:42:40.894Z,93.21
2022-09-06T00:43:27.624Z,96.08
2022-09-06T00:44:14.139Z,100.00
2022-09-06T00:45:01.143Z,100.00
2022-09-06T00:45:48.300Z,100.00
2022-09-06T00:46:39.704Z,100.00
2022-09-06T00:47:28.854Z,100.00
2022-09-06T00:48:17.205Z,100.00
2022-09-06T00:49:24.359Z,100.00
2022-09-06T00:50:15.236Z,100.00
2022-09-06T00:51:05.906Z,100.00
2022-09-06T00:51:57.685Z,100.00
2022-09-06T00:52:48.615Z,100.00
2022-09-06T00:53:35.565Z,100.00
2022-09-06T00:54:22.407Z,100.00
2022-09-06T00:55:10.017Z,100.00
2022-09-06T00:55:56.863Z,100.00
2022-09-06T00:56:44.732Z,100.00
2022-09-06T00:57:32.335Z,100.00
2022-09-06T00:58:19.531Z,100.00
2022-09-06T00:59:06.389Z,100.00
2022-09-06T00:59:55.766Z,100.00
2022-09-06T01:00:44.773Z,100.00
2022-09-06T01:01:31.580Z,100.00
2022-09-06T01:02:18.320Z,100.00
2022-09-06T01:03:06.713Z,100.00
2022-09-06T01:03:53.635Z,100.00
2022-09-06T01:04:43.773Z,100.00
2022-09-06T01:05:54.701Z,100.00
2022-09-06T01:06:52.592Z,100.00
2022-09-06T01:08:03.605Z,100.00
2022-09-06T01:08:55.986Z,100.00
2022-09-06T01:10:09.811Z,100.00
2022-09-06T01:11:20.007Z,100.00
2022-09-06T01:12:37.784Z,100.00
2022-09-06T01:13:39.840Z,100.00
2022-09-06T01:14:45.378Z,100.00
2022-09-06T01:16:03.132Z,100.00
2022-09-06T01:17:12.211Z,100.00
2022-09-06T01:18:13.966Z,100.00
2022-09-06T01:19:41.973Z,100.00
2022-09-06T01:21:14.605Z,100.00
2022-09-06T01:22:10.073Z,100.00
2022-09-06T01:23:07.176Z,100.00
2022-09-06T01:24:30.914Z,100.00
2022-09-06T01:25:39.311Z,100.00
2022-09-06T01:26:50.577Z,100.00
2022-09-06T01:28:03.933Z,100.00
2022-09-06T01:28:52.838Z,100.00
2022-09-06T01:29:48.345Z,100.00
2022-09-06T01:30:43.021Z,100.00
2022-09-06T01:31:50.374Z,100.00
2022-09-06T01:33:14.118Z,100.00
2022-09-06T01:34:03.352Z,100.00
2022-09-06T01:35:14.968Z,100.00
2022-09-06T01:36:08.834Z,100.00
2022-09-06T01:37:09.849Z,100.00
2022-09-06T01:37:59.529Z,100.00
2022-09-06T01:38:46.144Z,100.00
2022-09-06T01:39:35.787Z,100.00
2022-09-06T01:40:22.547Z,100.00
2022-09-06T01:41:09.814Z,100.00
2022-09-06T01:42:00.442Z,100.00
2022-09-06T01:42:50.959Z,100.00
2022-09-06T01:43:44.695Z,100.00
2022-09-06T01:44:33.263Z,100.00
2022-09-06T01:46:00.296Z,100.00
2022-09-06T01:47:13.889Z,100.00
2022-09-06T01:48:15.366Z,100.00
2022-09-06T01:49:23.448Z,100.00
2022-09-06T01:50:34.194Z,100.00
2022-09-06T01:51:48.610Z,100.00
2022-09-06T01:53:01.287Z,100.00
2022-09-06T01:54:23.786Z,100.00
2022-09-06T01:55:19.190Z,100.00
2022-09-06T01:56:29.603Z,100.00
2022-09-06T01:57:52.967Z,100.00
2022-09-06T01:59:15.223Z,100.00
2022-09-06T02:00:25.432Z,100.00
2022-09-06T02:01:33.334Z,100.00
2022-09-06T02:02:46.693Z,100.00
2022-09-06T02:03:58.810Z,100.00
2022-09-06T02:05:01.358Z,100.00
2022-09-06T02:05:55.685Z,100.00
2022-09-06T02:07:00.749Z,100.00
2022-09-06T02:07:52.542Z,100.00
2022-09-06T02:08:48.237Z,100.00
2022-09-06T02:09:43.514Z,100.00
2022-09-06T02:10:40.992Z,100.00
2022-09-06T02:11:37.039Z,100.00
2022-09-06T02:12:29.735Z,100.00
2022-09-06T02:13:19.284Z,100.00
2022-09-06T02:14:12.427Z,100.00
2022-09-06T02:15:15.837Z,100.00
2022-09-06T02:16:08.054Z,100.00
2022-09-06T02:16:59.008Z,100.00
2022-09-06T02:18:05.409Z,100.00
2022-09-06T02:19:26.300Z,100.00
2022-09-06T02:20:20.475Z,100.00
2022-09-06T02:21:12.995Z,100.00
2022-09-06T02:22:04.621Z,100.00
2022-09-06T02:22:57.000Z,100.00
2022-09-06T02:23:46.284Z,100.00
2022-09-06T02:24:37.379Z,100.00
2022-09-06T02:25:33.872Z,100.00
2022-09-06T02:26:27.025Z,100.00
2022-09-06T02:27:14.517Z,100.00
2022-09-06T02:28:01.431Z,100.00
2022-09-06T02:28:48.795Z,100.00
2022-09-06T02:29:35.908Z,100.00
2022-09-06T02:30:22.602Z,100.00
2022-09-06T02:31:26.146Z,100.00
2022-09-06T02:32:24.519Z,100.00
2022-09-06T02:33:26.348Z,100.00
2022-09-06T02:34:18.147Z,100.00
2022-09-06T02:35:14.336Z,100.00
2022-09-06T02:36:08.462Z,100.00
2022-09-06T02:36:55.333Z,100.00
2022-09-06T02:37:43.561Z,100.00
2022-09-06T02:38:34.132Z,100.00
2022-09-06T02:39:20.669Z,100.00
2022-09-06T02:40:08.202Z,100.00
2022-09-06T02:40:56.973Z,100.00
2022-09-06T02:41:47.983Z,100.00
2022-09-06T02:42:35.444Z,100.00
2022-09-06T02:43:22.041Z,100.00
2022-09-06T02:44:08.890Z,100.00
2022-09-06T02:44:55.335Z,100.00
2022-09-06T02:45:41.812Z,100.00
2022-09-06T02:46:28.502Z,100.00
2022-09-06T02:47:15.583Z,100.00
2022-09-06T02:48:02.202Z,100.00
2022-09-06T02:48:48.635Z,100.00
2022-09-06T02:49:35.323Z,100.00
2022-09-06T02:50:21.824Z,100.00
2022-09-06T02:51:09.748Z,100.00
2022-09-06T02:51:57.198Z,100.00
2022-09-06T02:52:43.645Z,100.00
2022-09-06T02:53:30.077Z,100.00
2022-09-06T02:54:16.563Z,100.00
2022-09-06T02:55:03.063Z,100.00
2022-09-06T02:55:49.614Z,100.00
2022-09-06T02:56:36.635Z,100.00
2022-09-06T02:57:23.212Z,100.00
2022-09-06T02:58:11.676Z,100.00
2022-09-06T02:58:58.467Z,100.00
2022-09-06T02:59:46.139Z,100.00
2022-09-06T03:00:33.373Z,100.00
2022-09-06T03:01:19.941Z,100.00
2022-09-06T03:02:06.683Z,100.00
2022-09-06T03:02:53.286Z,100.00
2022-09-06T03:03:39.991Z,100.00
2022-09-06T03:04:26.531Z,100.00
2022-09-06T03:05:13.635Z,100.00
2022-09-06T03:06:00.734Z,100.00
2022-09-06T03:06:47.408Z,100.00
2022-09-06T03:07:33.988Z,100.00
2022-09-06T03:08:25.578Z,100.00
2022-09-06T03:09:12.154Z,100.00
2022-09-06T03:09:58.803Z,100.00
2022-09-06T03:10:56.832Z,100.00
2022-09-06T03:11:43.398Z,100.00
2022-09-06T03:12:29.836Z,100.00
2022-09-06T03:13:16.894Z,100.00
2022-09-06T03:14:03.799Z,100.00
2022-09-06T03:14:54.691Z,100.00
2022-09-06T03:15:41.491Z,100.00
2022-09-06T03:16:30.047Z,100.00
2022-09-06T03:17:16.602Z,100.00
2022-09-06T03:18:03.070Z,100.00
2022-09-06T03:18:49.591Z,100.00
2022-09-06T03:19:36.104Z,100.00
2022-09-06T03:20:22.552Z,100.00
2022-09-06T03:21:09.220Z,100.00
2022-09-06T03:21:55.780Z,100.00
2022-09-06T03:22:42.299Z,100.00
2022-09-06T03:23:29.904Z,100.00
2022-09-06T03:24:16.483Z,100.00
2022-09-06T03:25:03.384Z,100.00
2022-09-06T03:25:50.427Z,100.00
2022-09-06T03:26:36.891Z,100.00
2022-09-06T03:27:24.349Z,100.00
2022-09-06T03:28:10.981Z,100.00
2022-09-06T03:28:57.511Z,100.00
2022-09-06T03:29:43.995Z,100.00
2022-09-06T03:30:30.491Z,100.00
2022-09-06T03:31:17.218Z,100.00
2022-09-06T03:32:03.961Z,100.00
2022-09-06T03:32:50.588Z,100.00
2022-09-06T03:33:37.153Z,100.00
2022-09-06T03:34:23.957Z,100.00
2022-09-06T03:35:10.996Z,100.00
2022-09-06T03:36:00.192Z,100.00
2022-09-06T03:36:46.630Z,100.00
2022-09-06T03:37:33.201Z,100.00
2022-09-06T03:38:21.249Z,100.00
2022-09-06T03:39:07.778Z,100.00
2022-09-06T03:39:54.923Z,100.00
2022-09-06T03:40:44.537Z,100.00
2022-09-06T03:41:30.969Z,100.00
2022-09-06T03:42:17.478Z,100.00
2022-09-06T03:43:03.974Z,100.00
2022-09-06T03:43:50.524Z,100.00
2022-09-06T03:44:37.018Z,100.00
2022-09-06T03:45:23.927Z,100.00
2022-09-06T03:46:10.749Z,100.00
2022-09-06T03:46:57.211Z,100.00
2022-09-06T03:47:43.737Z,100.00
2022-09-06T03:48:30.277Z,100.00
2022-09-06T03:49:16.829Z,100.00
2022-09-06T03:50:04.267Z,100.00
2022-09-06T03:50:54.328Z,100.00
2022-09-06T03:51:40.794Z,100.00
2022-09-06T03:52:27.313Z,100.00
2022-09-06T03:53:14.748Z,100.00
2022-09-06T03:54:01.174Z,100.00
2022-09-06T03:54:47.601Z,100.00
2022-09-06T03:55:34.266Z,100.00
2022-09-06T03:56:20.790Z,100.00
2022-09-06T03:57:07.280Z,100.00
2022-09-06T03:57:53.846Z,100.00
2022-09-06T03:58:40.386Z,100.00
2022-09-06T03:59:27.001Z,100.00
2022-09-06T04:00:14.411Z,100.00
2022-09-06T04:01:05.142Z,100.00
2022-09-06T04:01:51.884Z,100.00
2022-09-06T04:02:38.957Z,100.00
2022-09-06T04:03:25.676Z,100.00
2022-09-06T04:04:12.143Z,100.00
2022-09-06T04:04:58.583Z,100.00
2022-09-06T04:05:47.378Z,100.00
2022-09-06T04:06:33.861Z,100.00
2022-09-06T04:07:20.357Z,100.00
2022-09-06T04:08:06.924Z,100.00
2022-09-06T04:08:53.668Z,100.00
2022-09-06T04:09:40.205Z,100.00
2022-09-06T04:10:26.690Z,100.00
2022-09-06T04:11:13.804Z,100.00
2022-09-06T04:12:00.456Z,100.00
2022-09-06T04:12:46.912Z,100.00
2022-09-06T04:13:35.166Z,100.00
2022-09-06T04:14:21.601Z,100.00
2022-09-06T04:15:09.748Z,100.00
2022-09-06T04:15:56.209Z,100.00
2022-09-06T04:16:42.730Z,100.00
2022-09-06T04:17:29.631Z,100.00
2022-09-06T04:18:16.854Z,100.00
2022-09-06T04:19:04.444Z,100.00
2022-09-06T04:19:50.932Z,100.00
2022-09-06T04:20:37.435Z,100.00
2022-09-06T04:21:23.955Z,100.00
2022-09-06T04:22:10.396Z,100.00
2022-09-06T04:22:56.805Z,100.00
2022-09-06T04:23:43.381Z,100.00
2022-09-06T04:24:29.906Z,100.00
2022-09-06T04:25:16.522Z,100.00
2022-09-06T04:26:03.579Z,100.00
2022-09-06T04:26:50.251Z,100.00
2022-09-06T04:27:37.012Z,100.00
2022-09-06T04:28:24.802Z,100.00
2022-09-06T04:29:11.736Z,100.00
2022-09-06T04:29:58.235Z,100.00
2022-09-06T04:30:51.596Z,100.00
2022-09-06T04:31:38.245Z,100.00
2022-09-06T04:32:24.856Z,100.00
2022-09-06T04:33:11.545Z,100.00
2022-09-06T04:33:58.085Z,100.00
2022-09-06T04:34:44.563Z,100.00
2022-09-06T04:35:31.176Z,100.00
2022-09-06T04:36:17.646Z,100.00
2022-09-06T04:37:04.251Z,100.00
2022-09-06T04:37:50.680Z,100.00
2022-09-06T04:38:39.841Z,100.00
2022-09-06T04:39:26.397Z,100.00
2022-09-06T04:40:13.428Z,100.00
2022-09-06T04:41:00.074Z,100.00
2022-09-06T04:41:46.620Z,100.00
2022-09-06T04:42:33.471Z,100.00
2022-09-06T04:43:20.025Z,100.00
2022-09-06T04:44:06.605Z,100.00
2022-09-06T04:44:54.244Z,100.00
2022-09-06T04:45:41.922Z,100.00
2022-09-06T04:46:30.311Z,100.00
2022-09-06T04:47:18.150Z,100.00
2022-09-06T04:48:04.604Z,100.00
2022-09-06T04:48:52.552Z,100.00
2022-09-06T04:49:39.033Z,100.00
2022-09-06T04:50:25.463Z,100.00
2022-09-06T04:51:25.826Z,100.00
2022-09-06T04:52:12.540Z,100.00
2022-09-06T04:52:59.133Z,100.00
2022-09-06T04:53:46.618Z,100.00
2022-09-06T04:54:33.099Z,100.00
2022-09-06T04:55:19.578Z,100.00
2022-09-06T04:56:06.621Z,100.00
2022-09-06T04:56:53.220Z,100.00
2022-09-06T04:57:43.727Z,100.00
2022-09-06T04:58:32.993Z,100.00
2022-09-06T04:59:19.419Z,100.00
2022-09-06T05:00:06.826Z,100.00
2022-09-06T05:00:53.679Z,100.00
2022-09-06T05:01:40.157Z,100.00
2022-09-06T05:02:26.745Z,100.00
2022-09-06T05:03:13.606Z,100.00
2022-09-06T05:04:00.062Z,100.00
2022-09-06T05:04:46.618Z,100.00
2022-09-06T05:05:33.266Z,100.00
2022-09-06T05:06:23.627Z,100.00
2022-09-06T05:07:10.160Z,100.00
2022-09-06T05:07:56.979Z,100.00
2022-09-06T05:08:43.486Z,100.00
2022-09-06T05:09:30.351Z,100.00
2022-09-06T05:10:16.828Z,100.00
2022-09-06T05:11:04.112Z,100.00
2022-09-06T05:12:09.573Z,100.00
2022-09-06T05:12:56.055Z,100.00
2022-09-06T05:13:42.557Z,100.00
2022-09-06T05:14:29.781Z,100.00
2022-09-06T05:15:17.876Z,100.00
2022-09-06T05:16:07.066Z,100.00
2022-09-06T05:16:54.322Z,100.00
2022-09-06T05:17:41.244Z,100.00
2022-09-06T05:18:28.072Z,100.00
2022-09-06T05:19:15.140Z,100.00
2022-09-06T05:20:01.769Z,100.00
2022-09-06T05:20:52.291Z,100.00
2022-09-06T05:21:38.792Z,100.00
2022-09-06T05:22:25.541Z,100.00
2022-09-06T05:23:12.331Z,100.00
2022-09-06T05:23:59.017Z,100.00
2022-09-06T05:24:46.298Z,100.00
2022-09-06T05:25:32.763Z,100.00
2022-09-06T05:26:19.167Z,100.00
2022-09-06T05:27:07.382Z,100.00
2022-09-06T05:27:53.952Z,100.00
2022-09-06T05:28:40.608Z,100.00
2022-09-06T05:29:30.475Z,100.00
2022-09-06T05:30:18.243Z,100.00
2022-09-06T05:31:10.572Z,100.00
2022-09-06T05:31:57.793Z,100.00
2022-09-06T05:32:44.600Z,100.00
2022-09-06T05:33:31.648Z,100.00
2022-09-06T05:34:18.240Z,100.00
2022-09-06T05:35:05.935Z,100.00
2022-09-06T05:35:52.379Z,100.00
2022-09-06T05:36:38.940Z,100.00
2022-09-06T05:37:25.431Z,100.00
2022-09-06T05:38:12.051Z,100.00
2022-09-06T05:38:59.065Z,100.00
2022-09-06T05:39:45.616Z,100.00
2022-09-06T05:40:32.153Z,100.00
2022-09-06T05:41:19.115Z,100.00
2022-09-06T05:42:06.885Z,100.00
2022-09-06T05:42:53.588Z,100.00
2022-09-06T05:43:40.267Z,100.00
2022-09-06T05:44:26.937Z,100.00
2022-09-06T05:45:13.571Z,100.00
2022-09-06T05:46:00.301Z,100.00
2022-09-06T05:46:46.944Z,100.00
2022-09-06T05:47:35.319Z,100.00
2022-09-06T05:48:21.917Z,100.00
2022-09-06T05:49:10.395Z,100.00
2022-09-06T05:49:57.217Z,100.00
2022-09-06T05:50:43.667Z,100.00
2022-09-06T05:51:31.087Z,100.00
2022-09-06T05:52:18.272Z,100.00
2022-09-06T05:53:04.723Z,100.00
2022-09-06T05:53:51.215Z,100.00
2022-09-06T05:54:37.692Z,100.00
2022-09-06T05:55:24.195Z,100.00
2022-09-06T05:56:12.914Z,100.00
2022-09-06T05:56:59.478Z,100.00
2022-09-06T05:57:46.045Z,100.00
2022-09-06T05:58:33.253Z,100.00
2022-09-06T05:59:19.718Z,100.00
2022-09-06T06:00:07.394Z,100.00
2022-09-06T06:01:21.775Z,100.00
2022-09-06T06:02:08.449Z,100.00
2022-09-06T06:02:54.977Z,100.00
2022-09-06T06:03:41.576Z,100.00
2022-09-06T06:04:28.124Z,100.00
2022-09-06T06:05:15.556Z,100.00
2022-09-06T06:06:02.078Z,100.00
2022-09-06T06:06:51.649Z,100.00
2022-09-06T06:07:38.157Z,100.00
2022-09-06T06:08:24.626Z,100.00
2022-09-06T06:09:11.529Z,100.00
2022-09-06T06:09:58.003Z,100.00
2022-09-06T06:10:44.571Z,100.00
2022-09-06T06:11:31.288Z,100.00
2022-09-06T06:12:17.803Z,100.00
2022-09-06T06:13:04.680Z,100.00
2022-09-06T06:13:51.698Z,100.00
2022-09-06T06:14:38.180Z,100.00
2022-09-06T06:15:24.703Z,100.00
2022-09-06T06:16:14.083Z,100.00
2022-09-06T06:17:00.717Z,100.00
2022-09-06T06:17:47.423Z,100.00
2022-09-06T06:18:34.750Z,100.00
2022-09-06T06:19:21.216Z,100.00
2022-09-06T06:20:08.712Z,100.00
2022-09-06T06:21:08.380Z,100.00
2022-09-06T06:21:56.205Z,100.00
2022-09-06T06:22:43.836Z,100.00
2022-09-06T06:23:30.299Z,100.00
2022-09-06T06:24:16.829Z,100.00
2022-09-06T06:25:03.570Z,100.00
2022-09-06T06:25:52.358Z,100.00
2022-09-06T06:26:39.134Z,100.00
2022-09-06T06:27:25.783Z,100.00
2022-09-06T06:28:12.323Z,100.00
2022-09-06T06:29:01.866Z,100.00
2022-09-06T06:29:48.471Z,100.00
2022-09-06T06:30:35.402Z,100.00
2022-09-06T06:31:23.272Z,100.00
2022-09-06T06:32:09.922Z,100.00
2022-09-06T06:32:58.364Z,100.00
2022-09-06T06:33:44.851Z,100.00
2022-09-06T06:34:31.425Z,100.00
2022-09-06T06:35:18.018Z,100.00
2022-09-06T06:36:20.713Z,100.00
2022-09-06T06:37:07.393Z,100.00
2022-09-06T06:37:53.911Z,100.00
2022-09-06T06:38:43.236Z,100.00
2022-09-06T06:39:30.401Z,100.00
2022-09-06T06:40:16.906Z,100.00
2022-09-06T06:41:06.981Z,100.00
2022-09-06T06:41:53.803Z,100.00
2022-09-06T06:42:57.454Z,100.00
2022-09-06T06:43:44.312Z,100.00
2022-09-06T06:44:30.769Z,100.00
2022-09-06T06:45:17.413Z,100.00
2022-09-06T06:46:09.675Z,100.00
2022-09-06T06:46:58.007Z,100.00
2022-09-06T06:47:49.971Z,100.00
2022-09-06T06:48:39.662Z,100.00
2022-09-06T06:49:28.376Z,100.00
2022-09-06T06:50:15.076Z,100.00
2022-09-06T06:51:01.976Z,100.00
2022-09-06T06:51:48.464Z,100.00
2022-09-06T06:52:35.006Z,100.00
2022-09-06T06:53:21.440Z,100.00
2022-09-06T06:54:07.946Z,100.00
2022-09-06T06:54:54.575Z,100.00
2022-09-06T06:55:47.112Z,100.00
2022-09-06T06:56:36.286Z,100.00
2022-09-06T06:57:22.827Z,100.00
2022-09-06T06:58:09.479Z,100.00
2022-09-06T06:58:59.547Z,100.00
2022-09-06T06:59:46.226Z,100.00
2022-09-06T07:00:32.704Z,100.00
2022-09-06T07:01:24.292Z,100.00
2022-09-06T07:02:11.462Z,100.00
2022-09-06T07:02:59.248Z,100.00
2022-09-06T07:03:49.514Z,100.00
2022-09-06T07:04:35.976Z,100.00
2022-09-06T07:07:40.899Z,100.00
2022-09-06T07:08:28.079Z,100.00
2022-09-06T07:09:15.465Z,100.00
2022-09-06T07:11:11.369Z,100.00
2022-09-06T07:11:57.840Z,100.00
2022-09-06T07:12:44.525Z,100.00
2022-09-06T07:13:31.236Z,100.00
2022-09-06T07:14:19.097Z,100.00
2022-09-06T07:15:06.137Z,100.00
2022-09-06T07:16:05.698Z,100.00
2022-09-06T07:16:57.917Z,100.00
2022-09-06T07:17:44.594Z,100.00
2022-09-06T07:18:31.032Z,100.00
2022-09-06T07:20:26.481Z,100.00
2022-09-06T07:22:23.050Z,100.00
2022-09-06T07:24:16.388Z,100.00
2022-09-06T07:25:07.396Z,100.00
2022-09-06T07:25:53.810Z,100.00
2022-09-06T07:26:40.867Z,100.00
2022-09-06T07:28:34.334Z,100.00
2022-09-06T07:29:20.840Z,100.00
2022-09-06T07:30:08.181Z,100.00
2022-09-06T07:30:57.624Z,100.00
2022-09-06T07:32:50.954Z,100.00
2022-09-06T07:33:38.924Z,100.00
2022-09-06T07:34:25.750Z,100.00
2022-09-06T07:35:14.089Z,100.00
2022-09-06T07:36:03.209Z,100.00
2022-09-06T07:36:53.490Z,100.00
2022-09-06T07:37:40.207Z,100.00
2022-09-06T07:38:28.714Z,100.00
2022-09-06T07:39:15.323Z,100.00
2022-09-06T07:40:03.238Z,100.00
2022-09-06T07:40:54.621Z,100.00
2022-09-06T07:41:42.451Z,100.00
2022-09-06T07:42:35.631Z,100.00
2022-09-06T07:43:23.700Z,100.00
2022-09-06T07:44:10.463Z,100.00
2022-09-06T07:44:57.688Z,100.00
2022-09-06T07:45:44.175Z,100.00
2022-09-06T07:46:30.644Z,100.00
2022-09-06T07:48:24.400Z,100.00
2022-09-06T07:49:10.870Z,100.00
2022-09-06T07:51:06.246Z,100.00
2022-09-06T07:51:55.752Z,100.00
2022-09-06T07:54:07.053Z,100.00
2022-09-06T07:54:58.841Z,100.00
2022-09-06T07:55:45.307Z,100.00
2022-09-06T07:56:31.822Z,100.00
2022-09-06T07:57:18.294Z,100.00
2022-09-06T07:58:04.831Z,100.00
2022-09-06T07:58:52.879Z,100.00
2022-09-06T07:59:42.883Z,100.00
2022-09-06T08:00:29.531Z,100.00
2022-09-06T08:01:31.751Z,100.00
2022-09-06T08:02:18.510Z,100.00
2022-09-06T08:03:05.015Z,100.00
2022-09-06T08:03:51.511Z,100.00
2022-09-06T08:04:38.083Z,100.00
2022-09-06T08:07:41.566Z,100.00
2022-09-06T08:09:34.971Z,100.00
2022-09-06T08:10:21.456Z,100.00
2022-09-06T08:11:08.111Z,100.00
2022-09-06T08:11:54.804Z,100.00
2022-09-06T08:12:41.374Z,100.00
2022-09-06T08:13:28.119Z,100.00
2022-09-06T08:14:14.626Z,100.00
2022-09-06T08:15:04.498Z,100.00
2022-09-06T08:16:04.736Z,100.00
2022-09-06T08:16:52.823Z,100.00
2022-09-06T08:17:39.313Z,100.00
2022-09-06T08:18:25.859Z,100.00
2022-09-06T08:19:12.434Z,100.00
2022-09-06T08:19:59.002Z,100.00
2022-09-06T08:20:45.457Z,100.00
2022-09-06T08:21:32.567Z,100.00
2022-09-06T08:22:19.044Z,100.00
2022-09-06T08:23:11.190Z,100.00
2022-09-06T08:24:04.268Z,100.00
2022-09-06T08:24:50.703Z,100.00
2022-09-06T08:25:39.488Z,100.00
2022-09-06T08:26:27.804Z,100.00
2022-09-06T08:27:14.299Z,100.00
2022-09-06T08:28:01.032Z,100.00
2022-09-06T08:28:47.533Z,100.00
2022-09-06T08:29:35.401Z,100.00
2022-09-06T08:30:21.993Z,100.00
2022-09-06T08:31:14.512Z,100.00
2022-09-06T08:32:01.202Z,100.00
2022-09-06T08:32:48.007Z,100.00
2022-09-06T08:33:34.749Z,100.00
2022-09-06T08:34:21.425Z,100.00
2022-09-06T08:35:08.311Z,100.00
2022-09-06T08:35:58.238Z,100.00
2022-09-06T08:36:45.391Z,100.00
2022-09-06T08:37:31.820Z,100.00
2022-09-06T08:38:18.227Z,100.00
2022-09-06T08:39:07.227Z,100.00
2022-09-06T08:39:53.697Z,100.00
2022-09-06T08:40:40.425Z,100.00
2022-09-06T08:41:33.366Z,100.00
2022-09-06T08:42:19.818Z,100.00
2022-09-06T08:43:18.505Z,100.00
2022-09-06T08:45:19.367Z,100.00
2022-09-06T08:46:09.412Z,100.00
2022-09-06T08:47:07.927Z,100.00
2022-09-06T08:47:57.768Z,100.00
2022-09-06T08:48:44.812Z,100.00
2022-09-06T08:49:36.455Z,100.00
2022-09-06T08:50:28.408Z,100.00
2022-09-06T08:51:31.222Z,100.00
2022-09-06T08:52:28.132Z,100.00
2022-09-06T08:53:19.291Z,100.00
2022-09-06T08:54:18.421Z,100.00
2022-09-06T08:55:23.362Z,100.00
2022-09-06T08:56:24.221Z,100.00
2022-09-06T08:57:29.948Z,100.00
2022-09-06T08:58:25.170Z,100.00
2022-09-06T08:59:14.233Z,100.00
2022-09-06T09:00:07.701Z,100.00
2022-09-06T09:01:15.224Z,100.00
2022-09-06T09:02:10.742Z,100.00
2022-09-06T09:03:15.906Z,100.00
2022-09-06T09:04:07.317Z,100.00
2022-09-06T09:05:06.111Z,100.00
2022-09-06T09:05:53.978Z,100.00
2022-09-06T09:06:40.596Z,100.00
2022-09-06T09:07:46.866Z,100.00
2022-09-06T09:09:01.728Z,100.00
2022-09-06T09:09:51.997Z,100.00
2022-09-06T09:10:47.001Z,100.00
2022-09-06T09:11:36.053Z,100.00
2022-09-06T09:12:24.966Z,100.00
2022-09-06T09:13:25.510Z,100.00
2022-09-06T09:14:29.823Z,100.00
2022-09-06T09:15:19.789Z,100.00
2022-09-06T09:16:07.380Z,100.00
2022-09-06T09:17:01.955Z,100.00
2022-09-06T09:17:52.291Z,100.00
2022-09-06T09:18:46.753Z,100.00
2022-09-06T09:19:36.631Z,100.00
2022-09-06T09:20:23.215Z,94.12
2022-09-06T09:21:10.566Z,83.47
2022-09-06T09:21:57.521Z,77.31
2022-09-06T09:22:45.285Z,75.79
2022-09-06T09:23:32.085Z,75.39
2022-09-06T09:24:18.687Z,71.74
2022-09-06T09:25:09.236Z,70.73
2022-09-06T09:26:02.092Z,71.45
2022-09-06T09:27:03.755Z,72.16
2022-09-06T09:27:59.409Z,72.56
2022-09-06T09:29:10.353Z,72.30
2022-09-06T09:31:07.981Z,70.96
2022-09-06T09:31:56.046Z,72.81
2022-09-06T09:32:45.962Z,72.80
2022-09-06T09:33:35.729Z,71.61
2022-09-06T09:34:39.902Z,71.44
2022-09-06T09:35:33.135Z,69.76
2022-09-06T09:36:21.617Z,70.88
2022-09-06T09:38:35.106Z,69.88
2022-09-06T09:39:34.672Z,67.47
2022-09-06T09:40:24.185Z,67.78
2022-09-06T09:41:29.021Z,66.12
2022-09-06T09:42:37.119Z,67.73
2022-09-06T09:43:33.023Z,64.69
2022-09-06T09:44:20.874Z,65.91
2022-09-06T09:45:28.933Z,68.30
2022-09-06T09:46:24.417Z,68.76
2022-09-06T09:47:31.169Z,67.01
2022-09-06T09:48:23.576Z,66.54
2022-09-06T09:49:11.601Z,70.56
2022-09-06T09:49:58.551Z,69.82
2022-09-06T09:50:45.259Z,66.19
2022-09-06T09:51:35.594Z,66.08
2022-09-06T09:52:29.231Z,65.76
2022-09-06T09:53:20.939Z,67.36
2022-09-06T09:54:14.104Z,64.27
2022-09-06T09:55:04.999Z,64.94
2022-09-06T09:55:57.529Z,63.80
2022-09-06T09:56:52.816Z,63.84
2022-09-06T09:57:50.691Z,67.18
2022-09-06T09:58:37.413Z,69.33
2022-09-06T09:59:34.620Z,67.63
2022-09-06T10:00:40.784Z,67.22
2022-09-06T10:01:33.572Z,67.15
2022-09-06T10:02:30.188Z,64.69
2022-09-06T10:03:20.033Z,68.03
2022-09-06T10:05:21.142Z,67.95
2022-09-06T10:07:24.777Z,64.86
2022-09-06T10:08:14.164Z,65.00
2022-09-06T10:09:19.051Z,64.81
2022-09-06T10:10:12.784Z,64.87
2022-09-06T10:10:59.535Z,64.70
2022-09-06T10:11:54.266Z,61.33
2022-09-06T10:12:42.925Z,60.88
2022-09-06T10:13:31.196Z,59.45
2022-09-06T10:14:30.253Z,60.44
2022-09-06T10:15:38.425Z,62.84
2022-09-06T10:16:43.629Z,60.09
2022-09-06T10:17:34.423Z,61.80
2022-09-06T10:18:20.842Z,61.25
2022-09-06T10:19:23.062Z,60.73
2022-09-06T10:20:12.439Z,59.25
2022-09-06T10:21:12.424Z,61.70
2022-09-06T10:22:21.114Z,60.85
2022-09-06T10:24:51.666Z,61.28
2022-09-06T10:25:49.213Z,60.33
2022-09-06T10:26:51.572Z,59.39
2022-09-06T10:28:12.021Z,62.85
2022-09-06T10:29:05.515Z,58.47
2022-09-06T10:30:02.894Z,58.54
2022-09-06T10:31:07.510Z,59.25
2022-09-06T10:32:06.578Z,58.41
2022-09-06T10:33:07.303Z,59.27
2022-09-06T10:34:14.839Z,59.36
2022-09-06T10:35:24.014Z,58.53
2022-09-06T10:36:10.652Z,58.29
2022-09-06T10:37:20.352Z,58.13
2022-09-06T10:38:28.560Z,58.37
2022-09-06T10:39:47.949Z,58.34
2022-09-06T10:40:53.138Z,58.51
2022-09-06T10:41:42.494Z,58.57
2022-09-06T10:42:53.761Z,58.24
2022-09-06T10:44:09.731Z,56.72
2022-09-06T10:45:20.543Z,58.98
2022-09-06T10:46:15.610Z,59.06
2022-09-06T10:47:14.461Z,55.39
2022-09-06T10:48:23.592Z,57.40
2022-09-06T10:49:17.245Z,58.42
2022-09-06T10:50:05.968Z,55.95
2022-09-06T10:51:20.640Z,54.77
2022-09-06T10:52:14.904Z,54.13
2022-09-06T10:53:13.159Z,56.11
2022-09-06T10:54:14.301Z,55.88
2022-09-06T10:55:05.576Z,54.89
2022-09-06T10:56:17.369Z,54.26
2022-09-06T10:59:58.789Z,53.26
2022-09-06T11:00:49.115Z,54.87
2022-09-06T11:01:57.167Z,54.13
2022-09-06T11:02:47.438Z,55.71
2022-09-06T11:04:01.960Z,53.52
2022-09-06T11:06:08.237Z,54.61
2022-09-06T11:07:02.376Z,54.66
2022-09-06T11:09:32.648Z,54.38
2022-09-06T11:10:34.254Z,55.29